Pahranagat National Wildlife Refuge, Nevada Weather observations

Data are for 10 minute period ending at time listed.
 Day   Time   Solar   Ave.   Ave.  Ave.  Vector  Max.   Baro.   Total    
  of    of     Rad.   Air    Rel.  Wind   Wind   Wind  Press.  Precip.   
Year   Day            Temp.  Hum.  Speed  Dir.   Gust                    
2016   (PST)  Kw/m2    F      %     mph   deg.    mph    mb.     in.     
-------------------------------------------------------------------------
 143   21:50   0.00   55.0    36    0.6   325     2.0   897.8    0.00 
 143   22:00   0.00   52.0    41    2.3   343     4.5   897.7    0.00 
 143   22:10   0.00   47.0    55    2.8   341     5.2   897.7    0.00 
 143   22:20   0.00   47.4    48    2.0     7     4.9   897.6    0.00 
 143   22:30   0.00   51.9    36    0.9   274     5.5   897.6    0.00 
 143   22:40   0.00   47.4    55    3.3   310     6.2   897.7    0.00 
 143   22:50   0.00   47.5    50    5.0   341     5.9   897.7    0.00 
 143   23:00   0.00   51.0    34    5.0    21     6.1   897.7    0.00 
 143   23:10   0.00   52.0    39    1.6   345     4.5   897.7    0.00 
 143   23:20   0.00   48.4    54    1.4   273     4.5   897.7    0.00 
 143   23:30   0.00   49.2    45    0.7   268     3.1   897.7    0.00 
 143   23:40   0.00   50.7    43    1.3   255     2.9   897.6    0.00 
 143   23:50   0.00   51.3    37    1.7    40     2.9   897.5    0.00 
 144    0:00   0.00   51.1    37    1.3    29     3.0   897.4    0.00 
 144    0:10   0.00   50.1    48    1.8   317     2.4   897.4    0.00 
 144    0:20   0.00   47.5    65    0.7   278     1.7   897.4    0.00 
 144    0:30   0.00   47.1    64    1.3   324     2.3   897.4    0.00 
 144    0:40   0.00   48.4    54    2.7   359     3.4   897.2    0.00 
 144    0:50   0.00   47.4    56    2.4    19     3.0   897.1    0.00 
 144    1:00   0.00   48.9    48    1.1   329     2.2   897.1    0.00 
 144    1:10   0.00   45.9    68    2.4   298     3.5   897.1    0.00 
 144    1:20   0.00   44.6    66    1.3   344     2.6   897.0    0.00 
 144    1:30   0.00   44.0    68    1.3   305     2.6   896.9    0.00 
 144    1:40   0.00   44.4    68    1.7   248     3.3   896.9    0.00 
 144    1:50   0.00   45.1    65    0.6   289     2.9   896.9    0.00 
 144    2:00   0.00   44.7    63    0.8   334     2.3   896.9    0.00 
 144    2:10   0.00   44.2    65    3.2   294     4.4   896.9    0.00 
 144    2:20   0.00   45.0    61    3.0   328     5.0   896.9    0.00 
 144    2:30   0.00   44.4    57    2.4   338     5.2   896.7    0.00 
 144    2:40   0.00   43.5    58    2.3   336     3.2   896.7    0.00 
 144    2:50   0.00   42.8    63    4.0   307     4.9   896.7    0.00 
 144    3:00   0.00   41.2    67    1.7   342     3.7   896.7    0.00 
 144    3:10   0.00   41.5    65    1.6   278     3.4   896.6    0.00 
 144    3:20   0.00   42.2    64    1.4   325     3.2   896.6    0.00 
 144    3:30   0.00   42.8    61    2.9   334     4.7   896.5    0.00 
 144    3:40   0.00   42.7    59    4.6   344     7.2   896.6    0.00 
 144    3:50   0.00   42.1    58    2.8   341     4.9   896.8    0.00 
 144    4:00   0.00   42.6    54    2.3   335     3.8   896.9    0.00 
 144    4:10   0.00   44.1    50    2.8   348     4.7   896.8    0.00 
 144    4:20   0.00   40.9    58    3.6     8     4.9   896.8    0.00 
 144    4:30   0.00   38.8    66    1.0   348     2.9   896.9    0.00 
 144    4:40   0.01   39.1    68    0.1   295     1.0   897.0    0.00 
 144    4:50   0.02   40.4    64    1.7   290     3.1   897.0    0.00 
 144    5:00   0.04   41.4    61    1.6   287     2.6   897.1    0.00 
 144    5:10   0.06   41.0    67    1.3   319     2.2   897.2    0.00 
 144    5:20   0.08   42.0    66    1.1   341     1.8   897.3    0.00 
 144    5:30   0.10   44.5    64    0.4   269     1.5   897.4    0.00 
 144    5:40   0.12   46.8    56    1.1   296     1.8   897.6    0.00 
 144    5:50   0.15   48.9    51    0.4   319     1.6   897.7    0.00 
 144    6:00   0.17   51.0    48    1.3   352     2.3   897.8    0.00 
 144    6:10   0.20   52.6    47    1.1   341     2.3   897.9    0.00 
 144    6:20   0.22   54.4    39    2.6   349     5.3   898.0    0.00 
 144    6:30   0.25   55.4    36    3.5   330     5.2   898.0    0.00 
 144    6:40   0.28   56.4    35    3.2   308     4.9   898.1    0.00 
 144    6:50   0.31   57.2    32    2.3   313     3.7   898.1    0.00 
 144    7:00   0.33   58.4    31    2.4   299     3.8   898.0    0.00 
 144    7:10   0.36   59.5    28    1.9   289     3.6   898.0    0.00 
 144    7:20   0.39   60.8    26    1.6   279     3.1   898.1    0.00 
 144    7:30   0.41   62.6    27    0.8     4     2.0   898.1    0.00 
 144    7:40   0.44   63.6    28    1.2   249     2.6   898.1    0.00 
 144    7:50   0.46   65.1    22    1.1   221     3.3   898.0    0.00 
 144    8:00   0.49   65.8    22    2.2   198     3.7   898.0    0.00 
 144    8:10   0.51   67.4    21    1.6   176     3.5   897.9    0.00 
 144    8:20   0.54   69.2    19    1.5   161     3.7   897.8    0.00 
 144    8:30   0.56   69.2    19    4.9   143     8.1   897.7    0.00 
 144    8:40   0.58   69.4    19    4.8   154     9.3   897.6    0.00 
 144    8:50   0.60   70.3    18    5.4   146     9.6   897.5    0.00 
 144    9:00   0.63   71.2    17    4.9   168    13.7   897.4    0.00 
 144    9:10   0.65   71.2    17    8.1   141    14.7   897.3    0.00 
 144    9:20   0.67   71.3    17    8.8   142    14.0   897.2    0.00 
 144    9:30   0.67   71.4    16   11.2   138    16.3   897.2    0.00 
 144    9:40   0.70   71.4    16   11.2   140    18.2   897.1    0.00 
 144    9:50   0.70   71.3    17   11.3   142    17.5   897.2    0.00 
 144   10:00   0.71   72.0    17   10.9   134    18.8   897.1    0.00 
 144   10:10   0.73   72.2    16   13.1   144    20.4   897.1    0.00 
 144   10:20   0.73   72.4    18   12.4   160    18.6   897.1    0.00 
 144   10:30   0.75   72.2    17   14.2   160    22.7   897.1    0.00 
 144   10:40   0.76   72.5    16   14.1   143    22.0   897.1    0.00 
 144   10:50   0.77   72.8    16   12.3   147    20.5   897.0    0.00 
 144   11:00   0.78   73.3    16   11.8   150    18.9   896.8    0.00 
 144   11:10   0.78   73.3    16   12.4   143    29.7   896.6    0.00 
 144   11:20   0.78   73.9    17   10.0   168    16.7   896.3    0.00 
 144   11:30   0.79   74.2    16   11.7   144    20.2   896.1    0.00 
 144   11:40   0.79   73.6    17    7.2   183    14.5   896.1    0.00 
 144   11:50   0.79   74.2    17   10.4   156    16.6   895.9    0.00 
 144   12:00   0.79   74.6    16   10.1   151    20.2   895.9    0.00 
 144   12:10   0.78   74.8    18   11.7   159    20.2   895.8    0.00 
 144   12:20   0.78   74.4    16   10.1   146    20.9   895.7    0.00 
 144   12:30   0.78   75.2    17   10.0   161    18.3   895.5    0.00 
 144   12:40   0.77   75.5    16   11.4   149    19.7   895.4    0.00 
 144   12:50   0.77   74.9    15   11.8   136    19.0   895.1    0.00 
 144   13:00   0.76   75.4    15   10.7   140    16.9   895.0    0.00 
 144   13:10   0.74   75.6    16    9.3   159    20.4   894.8    0.00 
 144   13:20   0.74   75.8    17    9.6   192    20.5   894.6    0.00 
 144   13:30   0.63   76.0    15   10.9   143    19.7   894.7    0.00 
 144   13:40   0.72   76.1    15   12.0   148    23.1   894.6    0.00 
 144   13:50   0.70   76.3    15    9.0   151    22.3   894.3    0.00 
 144   14:00   0.68   76.6    16   10.3   157    19.8   894.2    0.00 
 144   14:10   0.67   76.7    15   11.9   153    18.9   894.1    0.00 
 144   14:20   0.66   76.4    14   11.1   138    18.9   894.0    0.00 
 144   14:30   0.64   76.3    14   11.3   135    18.3   893.9    0.00 
 144   14:40   0.62   76.7    14   11.9   142    21.5   893.8    0.00 
 144   14:50   0.61   76.4    14   11.2   146    20.9   893.7    0.00 
 144   15:00   0.59   77.1    14   13.2   140    18.9   893.6    0.00 
 144   15:10   0.59   77.0    13   12.9   128    19.2   893.5    0.00 
 144   15:20   0.55   77.3    15   10.3   150    18.6   893.3    0.00 
 144   15:30   0.38   76.3    15   11.0   150    16.7   893.3    0.00 
 144   15:40   0.14   74.2    16   10.5   143    17.5   893.3    0.00 
 144   15:50   0.23   74.3    15   12.4   141    18.0   893.2    0.00 
 144   16:00   0.17   74.6    17    9.7   149    19.6   893.2    0.00 
 144   16:10   0.14   73.8    15   12.4   133    18.0   893.1    0.00 
 144   16:20   0.15   74.0    15   13.6   140    19.5   893.0    0.00 
 144   16:30   0.17   74.4    16   12.4   143    22.0   893.0    0.00 
 144   16:40   0.15   74.0    15   12.9   137    20.2   892.9    0.00 
 144   16:50   0.15   74.5    16   12.2   150    22.4   892.9    0.00 
 144   17:00   0.09   73.7    17   11.9   145    18.8   892.8    0.00 
 144   17:10   0.08   73.6    18   12.1   151    18.0   892.7    0.00 
 144   17:20   0.09   73.6    18   11.0   151    16.9   892.7    0.00 
 144   17:30   0.09   73.5    18   12.2   153    19.0   892.6    0.00 
 144   17:40   0.08   73.1    18    9.9   148    15.3   892.6    0.00 
 144   17:50   0.14   73.6    17   12.0   150    19.0   892.5    0.00 
 144   18:00   0.09   73.5    18   10.8   152    16.0   892.5    0.00 
 144   18:10   0.03   72.5    18   12.4   149    18.9   892.5    0.00 
 144   18:20   0.05   72.5    18   11.8   152    18.7   892.5    0.00 
 144   18:30   0.03   72.2    18    9.7   159    15.8   892.5    0.00 
 144   18:40   0.01   71.2    20    7.9   155    14.6   892.5    0.00 
 144   18:50   0.01   70.5    20    6.8   160    11.8   892.6    0.00 
 144   19:00   0.00   70.1    19    7.9   152    12.7   892.6    0.00 
 144   19:10   0.00   68.9    22    5.9   152     9.5   892.7    0.00 
 144   19:20   0.00   68.8    19    7.4   164    12.3   892.8    0.00 
 144   19:30   0.00   69.5    18    6.9   174    11.3   892.9    0.00 
 144   19:40   0.00   69.4    17    5.2   192     9.5   893.0    0.00 
 144   19:50   0.00   68.0    18    3.7   225     5.9   893.2    0.00 
 144   20:00   0.00   67.3    18    3.5   210     5.7   893.4    0.00 
 144   20:10   0.00   66.6    19    2.2   215     4.9   893.5    0.00 
 144   20:20   0.00   64.9    21    1.8   144     4.4   893.7    0.00 
 144   20:30   0.00   64.4    20    1.7   127     2.6   893.9    0.00 
 144   20:40   0.00   64.3    21    1.9   126     3.0   894.0    0.00 
 144   20:50   0.00   62.8    22    1.9   112     3.3   894.1    0.00 
 144   21:00   0.00   62.6    18    1.5   128     4.0   894.2    0.00 
 144   21:10   0.00   63.2    19    2.9   128     5.7   894.3    0.00 
 144   21:20   0.00   62.9    22    2.9   170     5.8   894.3    0.00 
 144   21:30   0.00   59.7    26    2.8   147     6.8   894.3    0.00 
 144   21:40   0.00   58.6    25    2.2    35     4.7   894.4    0.00 

Return to Pahranagat N. Wildlife Refuge graphs page.


Western Regional Climate Center,wrcc@dri.edu